createdAt,value
2023-04-10T00:00:33.029Z,99992.05
2023-04-10T00:04:39.045Z,99988.10
2023-04-10T00:08:39.007Z,99995.98
2023-04-10T00:12:38.032Z,99993.38
2023-04-10T00:16:36.065Z,99991.90
2023-04-10T00:20:34.010Z,99987.67
2023-04-10T00:24:32.059Z,99988.88
2023-04-10T00:28:29.967Z,99978.66
2023-04-10T00:32:27.937Z,99978.05
2023-04-10T00:36:26.086Z,99972.70
2023-04-10T00:40:23.920Z,99972.56
2023-04-10T00:44:21.936Z,99976.19
2023-04-10T00:48:19.916Z,99977.20
2023-04-10T00:52:18.004Z,99976.18
2023-04-10T00:56:16.897Z,99967.73
2023-04-10T01:00:14.977Z,99959.84
2023-04-10T01:04:13.174Z,99962.85
2023-04-10T01:08:40.947Z,99962.80
2023-04-10T01:12:56.941Z,99954.67
2023-04-10T01:17:15.918Z,99949.08
2023-04-10T01:21:16.877Z,99950.44
2023-04-10T01:25:44.949Z,99943.73
2023-04-10T01:29:44.873Z,99941.95
2023-04-10T01:33:53.184Z,99944.51
2023-04-10T01:37:54.964Z,99940.76
2023-04-10T01:41:55.870Z,99941.76
2023-04-10T01:46:13.884Z,99951.38
2023-04-10T01:50:12.923Z,99951.84
2023-04-10T01:54:10.849Z,99946.45
2023-04-10T01:58:08.889Z,99947.22
2023-04-10T02:02:13.874Z,99943.35
2023-04-10T02:06:28.857Z,99939.75
2023-04-10T02:10:46.810Z,99940.14
2023-04-10T02:14:46.839Z,99938.96
2023-04-10T02:18:47.802Z,99936.64
2023-04-10T02:22:45.844Z,99942.85
2023-04-10T02:26:43.828Z,99945.25
2023-04-10T02:30:41.863Z,99948.95
2023-04-10T02:34:39.735Z,99951.70
2023-04-10T02:38:37.856Z,99952.70
2023-04-10T02:42:35.747Z,99951.55
2023-04-10T02:46:33.871Z,99949.16
2023-04-10T02:50:31.790Z,99947.98
2023-04-10T02:54:29.791Z,99948.91
2023-04-10T02:58:28.787Z,99950.28
2023-04-10T03:02:27.057Z,99949.67
2023-04-10T03:06:29.724Z,99948.47
2023-04-10T03:10:27.849Z,99944.20
2023-04-10T03:14:25.809Z,99946.84
2023-04-10T03:18:23.740Z,99941.15
2023-04-10T03:22:21.767Z,99940.09
2023-04-10T03:26:20.771Z,99938.56
2023-04-10T03:30:18.747Z,99938.56
2023-04-10T03:34:16.829Z,99936.85
2023-04-10T03:38:14.812Z,99938.56
2023-04-10T03:42:12.723Z,99939.91
2023-04-10T03:46:10.697Z,99944.85
2023-04-10T03:50:08.744Z,99943.09
2023-04-10T03:54:11.750Z,99946.81
2023-04-10T03:58:09.732Z,99943.61
2023-04-10T04:02:07.908Z,99945.15
2023-04-10T04:06:06.678Z,99944.78
2023-04-10T04:10:21.761Z,99949.29
2023-04-10T04:14:45.676Z,99952.50
2023-04-10T04:19:02.618Z,99953.33
2023-04-10T04:23:08.677Z,99954.30
2023-04-10T04:27:29.654Z,99963.24
2023-04-10T04:31:45.670Z,99973.92
2023-04-10T04:36:01.624Z,99982.56
2023-04-10T04:40:10.660Z,99986.30
2023-04-10T04:44:24.580Z,99988.45
2023-04-10T04:48:44.641Z,99985.51
2023-04-10T04:53:06.077Z,99981.95
2023-04-10T04:57:24.664Z,99982.52
2023-04-10T05:01:45.725Z,99987.13
2023-04-10T05:06:07.578Z,99996.80
2023-04-10T05:10:34.565Z,100002.69
2023-04-10T05:14:44.605Z,100004.36
2023-04-10T05:18:51.681Z,100009.15
2023-04-10T05:23:09.581Z,100010.25
2023-04-10T05:27:32.531Z,100014.75
2023-04-10T05:31:55.549Z,100015.88
2023-04-10T05:36:11.596Z,100019.38
2023-04-10T05:40:20.641Z,100022.42
2023-04-10T05:44:36.552Z,100024.87
2023-04-10T05:48:50.539Z,100029.48
2023-04-10T05:53:07.622Z,100028.71
2023-04-10T05:57:21.559Z,100030.30
2023-04-10T06:01:09.059Z,100031.36
2023-04-10T06:04:39.513Z,100025.94
2023-04-10T06:08:03.686Z,100034.96
2023-04-10T06:11:27.719Z,100037.73
2023-04-10T06:14:52.612Z,100038.55
2023-04-10T06:18:20.860Z,100038.75
2023-04-10T06:21:45.523Z,100034.22
2023-04-10T06:25:09.962Z,100033.58
2023-04-10T06:28:33.991Z,100032.29
2023-04-10T06:31:58.920Z,100032.29
2023-04-10T06:35:25.052Z,100033.52
2023-04-10T06:38:48.968Z,100037.63
2023-04-10T06:42:12.858Z,100047.40
2023-04-10T06:45:51.032Z,100046.89
2023-04-10T06:49:15.154Z,100049.98
2023-04-10T06:52:39.157Z,100047.48
2023-04-10T06:56:03.771Z,100048.74
2023-04-10T06:59:27.828Z,100045.81
2023-04-10T07:02:51.646Z,100042.48
2023-04-10T07:06:15.703Z,100039.39
2023-04-10T07:09:39.469Z,100036.62
2023-04-10T07:13:03.286Z,100039.04
2023-04-10T07:16:29.528Z,100042.29
2023-04-10T07:19:53.571Z,100047.14
2023-04-10T07:23:17.472Z,100049.17
2023-04-10T07:26:43.525Z,100044.54
2023-04-10T07:30:08.022Z,100046.15
2023-04-10T07:33:31.867Z,100046.61
2023-04-10T07:36:55.673Z,100037.98
2023-04-10T07:40:19.620Z,100039.98
2023-04-10T07:43:43.497Z,100038.51
2023-04-10T07:47:07.313Z,100039.33
2023-04-10T07:50:31.580Z,100036.45
2023-04-10T07:53:55.938Z,100035.86
2023-04-10T07:57:19.683Z,100029.27
2023-04-10T08:00:43.868Z,100034.34
2023-04-10T08:04:07.781Z,100036.70
2023-04-10T08:07:31.662Z,100038.64
2023-04-10T08:10:55.576Z,100035.48
2023-04-10T08:14:19.459Z,100036.27
2023-04-10T08:17:43.301Z,100032.60
2023-04-10T08:21:07.947Z,100031.05
2023-04-10T08:24:31.783Z,100024.86
2023-04-10T08:27:55.616Z,100018.98
2023-04-10T08:31:20.831Z,100027.89
2023-04-10T08:34:44.686Z,100029.45
2023-04-10T08:38:14.157Z,100026.80
2023-04-10T08:41:38.563Z,100020.23
2023-04-10T08:45:02.407Z,100018.81
2023-04-10T08:48:32.883Z,100020.90
2023-04-10T08:52:21.322Z,100018.67
2023-04-10T08:56:21.340Z,100015.78
2023-04-10T09:00:23.402Z,100016.27
2023-04-10T09:04:21.466Z,100014.33
2023-04-10T09:08:21.321Z,100013.59
2023-04-10T09:12:19.316Z,100012.49
2023-04-10T09:16:17.322Z,100012.98
2023-04-10T09:20:15.458Z,100004.59
2023-04-10T09:24:16.304Z,100006.52
2023-04-10T09:28:24.374Z,99997.11
2023-04-10T09:32:22.326Z,99997.30
2023-04-10T09:36:27.327Z,99992.95
2023-04-10T09:40:39.353Z,99989.90
2023-04-10T09:44:45.348Z,99990.27
2023-04-10T09:48:43.284Z,99992.78
2023-04-10T09:52:50.284Z,99992.43
2023-04-10T09:56:52.316Z,99988.77
2023-04-10T10:01:01.274Z,99985.81
2023-04-10T10:05:00.336Z,99982.32
2023-04-10T10:08:59.246Z,99978.74
2023-04-10T10:13:09.238Z,99978.64
2023-04-10T10:17:13.236Z,99968.23
2023-04-10T10:21:11.247Z,99970.02
2023-04-10T10:25:11.223Z,99961.15
2023-04-10T10:29:11.277Z,99965.27
2023-04-10T10:33:09.313Z,99959.42
2023-04-10T10:37:07.200Z,99955.63
2023-04-10T10:41:27.232Z,99948.21
2023-04-10T10:45:32.432Z,99947.73
2023-04-10T10:49:30.310Z,99939.42
2023-04-10T10:53:47.187Z,99937.28
2023-04-10T10:58:09.408Z,99928.23
2023-04-10T11:02:27.349Z,99922.98
2023-04-10T11:06:27.192Z,99918.92
2023-04-10T11:10:25.232Z,99917.13
2023-04-10T11:14:24.221Z,99909.04
2023-04-10T11:18:22.200Z,99907.05
2023-04-10T11:22:22.191Z,99902.59
2023-04-10T11:26:20.154Z,99898.96
2023-04-10T11:30:18.187Z,99898.98
2023-04-10T11:34:23.169Z,99893.08
2023-04-10T11:38:29.275Z,99881.90
2023-04-10T11:42:27.132Z,99874.41
2023-04-10T11:46:25.298Z,99868.21
2023-04-10T11:50:25.168Z,99855.94
2023-04-10T11:54:28.226Z,99848.64
2023-04-10T11:58:43.167Z,99844.03
2023-04-10T12:02:41.241Z,99829.71
2023-04-10T12:06:39.102Z,99830.33
2023-04-10T12:10:37.170Z,99828.89
2023-04-10T12:14:37.100Z,99821.68
2023-04-10T12:18:37.238Z,99813.33
2023-04-10T12:22:36.113Z,99805.66
2023-04-10T12:26:34.218Z,99805.50
2023-04-10T12:30:32.094Z,99803.63
2023-04-10T12:34:33.141Z,99795.83
2023-04-10T12:38:31.128Z,99787.52
2023-04-10T12:42:31.154Z,99787.52
2023-04-10T12:46:39.179Z,99779.61
2023-04-10T12:50:37.149Z,99779.09
2023-04-10T12:54:43.072Z,99803.64
2023-04-10T12:58:42.170Z,99818.80
2023-04-10T13:02:42.280Z,99812.13
2023-04-10T13:06:40.054Z,99815.38
2023-04-10T13:10:38.138Z,99809.66
2023-04-10T13:14:36.105Z,99802.90
2023-04-10T13:18:34.074Z,99801.33
2023-04-10T13:22:32.087Z,99792.86
2023-04-10T13:26:30.022Z,99797.05
2023-04-10T13:30:28.046Z,99797.93
2023-04-10T13:34:26.180Z,99787.40
2023-04-10T13:38:24.160Z,99779.96
2023-04-10T13:42:22.149Z,99775.95
2023-04-10T13:46:21.159Z,99768.60
2023-04-10T13:50:19.118Z,99759.38
2023-04-10T13:54:18.059Z,99764.38
2023-04-10T13:58:16.014Z,99762.20
2023-04-10T14:02:14.365Z,99768.63
2023-04-10T14:06:12.056Z,99766.55
2023-04-10T14:10:10.013Z,99766.68
2023-04-10T14:14:08.023Z,99772.36
2023-04-10T14:18:06.102Z,99770.55
2023-04-10T14:22:04.084Z,99771.40
2023-04-10T14:26:04.108Z,99776.55
2023-04-10T14:30:01.963Z,99777.54
2023-04-10T14:34:00.009Z,99771.66
2023-04-10T14:37:57.941Z,99761.80
2023-04-10T14:41:56.014Z,99764.65
2023-04-10T14:45:53.958Z,99760.91
2023-04-10T14:49:52.082Z,99761.73
2023-04-10T14:53:50.090Z,99756.59
2023-04-10T14:57:48.018Z,99765.93
2023-04-10T15:01:46.086Z,99766.98
2023-04-10T15:05:44.047Z,99761.70
2023-04-10T15:09:41.937Z,99764.71
2023-04-10T15:13:40.057Z,99764.09
2023-04-10T15:17:37.975Z,99761.35
2023-04-10T15:21:36.263Z,99750.98
2023-04-10T15:25:33.932Z,99750.72
2023-04-10T15:29:32.987Z,99749.89
2023-04-10T15:33:33.130Z,99750.16
2023-04-10T15:37:31.895Z,99748.60
2023-04-10T15:41:29.904Z,99746.04
2023-04-10T15:45:27.941Z,99743.45
2023-04-10T15:49:36.232Z,99742.14
2023-04-10T15:53:34.941Z,99739.86
2023-04-10T15:57:32.850Z,99733.55
2023-04-10T16:01:30.936Z,99735.98
2023-04-10T16:05:29.867Z,99739.55
2023-04-10T16:09:27.959Z,99738.94
2023-04-10T16:13:25.908Z,99743.19
2023-04-10T16:17:24.938Z,99740.08
2023-04-10T16:21:22.823Z,99738.48
2023-04-10T16:25:21.829Z,99739.81
2023-04-10T16:29:19.851Z,99740.06
2023-04-10T16:33:17.904Z,99736.14
2023-04-10T16:37:15.862Z,99735.80
2023-04-10T16:41:16.826Z,99731.92
2023-04-10T16:45:14.831Z,99726.59
2023-04-10T16:49:12.834Z,99724.58
2023-04-10T16:53:10.820Z,99729.73
2023-04-10T16:57:08.901Z,99732.31
2023-04-10T17:01:06.810Z,99730.46
2023-04-10T17:05:04.825Z,99733.96
2023-04-10T17:09:02.792Z,99732.38
2023-04-10T17:12:41.132Z,99731.92
2023-04-10T17:16:06.364Z,99731.33
2023-04-10T17:19:31.796Z,99728.91
2023-04-10T17:22:56.082Z,99722.58
2023-04-10T17:26:23.338Z,99723.67
2023-04-10T17:29:47.635Z,99720.77
2023-04-10T17:33:11.525Z,99727.00
2023-04-10T17:36:35.695Z,99728.10
2023-04-10T17:40:19.768Z,99729.72
2023-04-10T17:44:17.741Z,99730.69
2023-04-10T17:48:15.851Z,99729.46
2023-04-10T17:52:13.780Z,99727.73
2023-04-10T17:56:11.824Z,99724.08
2023-04-10T18:00:09.733Z,99726.05
2023-04-10T18:04:09.789Z,99730.37
2023-04-10T18:08:09.793Z,99734.10
2023-04-10T18:12:07.763Z,99732.86
2023-04-10T18:16:05.842Z,99728.14
2023-04-10T18:20:04.787Z,99730.17
2023-04-10T18:24:02.737Z,99727.51
2023-04-10T18:32:01.801Z,99728.94
2023-04-10T18:35:59.898Z,99725.84
2023-04-10T18:40:03.428Z,99725.48
2023-04-10T18:44:05.755Z,99726.64
2023-04-10T18:48:04.738Z,99727.55
2023-04-10T18:52:03.736Z,99732.84
2023-04-10T18:56:08.777Z,99733.59
2023-04-10T19:00:08.697Z,99733.38
2023-04-10T19:04:06.877Z,99731.59
2023-04-10T19:08:05.158Z,99732.45
2023-04-10T19:12:03.629Z,99733.77
2023-04-10T19:16:02.790Z,99729.55
2023-04-10T19:20:01.662Z,99728.03
2023-04-10T19:23:59.747Z,99728.75
2023-04-10T19:27:58.857Z,99732.41
2023-04-10T19:31:56.633Z,99726.58
2023-04-10T19:35:54.635Z,99729.11
2023-04-10T19:39:52.652Z,99728.41
2023-04-10T19:43:50.696Z,99728.48
2023-04-10T19:47:48.642Z,99723.16
2023-04-10T19:51:46.627Z,99725.48
2023-04-10T19:55:44.606Z,99721.11
2023-04-10T19:59:44.599Z,99718.58
2023-04-10T20:03:43.703Z,99715.55
2023-04-10T20:07:41.657Z,99710.03
2023-04-10T20:11:40.731Z,99704.70
2023-04-10T20:15:38.548Z,99702.52
2023-04-10T20:19:36.615Z,99691.97
2023-04-10T20:23:34.545Z,99697.39
2023-04-10T20:27:33.034Z,99699.59
2023-04-10T20:31:32.137Z,99693.86
2023-04-10T20:35:31.683Z,99692.01
2023-04-10T20:39:31.600Z,99686.77
2023-04-10T20:43:29.665Z,99687.98
2023-04-10T20:47:29.635Z,99693.73
2023-04-10T20:51:27.595Z,99689.31
2023-04-10T20:55:25.551Z,99690.98
2023-04-10T20:59:23.531Z,99688.52
2023-04-10T21:03:21.658Z,99689.75
2023-04-10T21:07:19.530Z,99692.83
2023-04-10T21:11:17.507Z,99697.23
2023-04-10T21:15:15.550Z,99691.81
2023-04-10T21:19:13.555Z,99694.15
2023-04-10T21:23:11.630Z,99686.85
2023-04-10T21:27:09.517Z,99684.56
2023-04-10T21:31:07.682Z,99682.71
2023-04-10T21:35:05.451Z,99679.35
2023-04-10T21:39:03.535Z,99678.57
2023-04-10T21:43:01.524Z,99672.84
2023-04-10T21:46:59.500Z,99672.95
2023-04-10T21:50:59.508Z,99666.02
2023-04-10T21:54:59.538Z,99658.98
2023-04-10T21:58:59.454Z,99652.86
2023-04-10T22:02:57.622Z,99651.84
2023-04-10T22:06:48.568Z,99647.60
2023-04-10T22:10:46.534Z,99641.39
2023-04-10T22:14:44.381Z,99633.13
2023-04-10T22:18:42.537Z,99636.65
2023-04-10T22:22:40.470Z,99637.48
2023-04-10T22:26:39.471Z,99636.05
2023-04-10T22:30:37.463Z,99639.10
2023-04-10T22:34:35.530Z,99635.31
2023-04-10T22:38:33.409Z,99632.21
2023-04-10T22:42:32.030Z,99632.11
2023-04-10T22:46:30.374Z,99626.71
2023-04-10T22:50:28.420Z,99627.33
2023-04-10T22:54:28.600Z,99623.80
2023-04-10T22:58:26.482Z,99615.27
2023-04-10T23:02:24.453Z,99614.39
2023-04-10T23:06:22.442Z,99609.23
2023-04-10T23:10:21.360Z,99606.58
2023-04-10T23:14:19.344Z,99608.56
2023-04-10T23:18:18.341Z,99601.41
2023-04-10T23:22:16.368Z,99600.98
2023-04-10T23:26:15.316Z,99598.82
2023-04-10T23:30:13.365Z,99590.63
2023-04-10T23:34:11.359Z,99583.67
2023-04-10T23:38:09.441Z,99580.52
2023-04-10T23:42:07.422Z,99577.17
2023-04-10T23:46:05.371Z,99575.23
2023-04-10T23:50:03.382Z,99568.30
2023-04-10T23:54:01.300Z,99561.31
2023-04-10T23:57:59.334Z,99557.59
